Aviation Digital Data Service (ADDS)

Output produced by METARs form (0354 UTC 06 March 2015)
found at http://aviationweather.gov/adds/metars/
 
KCDW 060253Z 33008G14KT 10SM FEW120 M07/M16 A3035 RMK AO2 SLP285 T10671161 53026
KMMU 060335Z AUTO 32011G14KT 10SM CLR M05/M15 A3036 RMK AO2
KFWN 060253Z AUTO 33004KT 10SM CLR M08/M17 A3036 RMK AO2 SLP285 T10781172 53038
KTEB 060351Z 35008G19KT 10SM CLR M07/M16 A3035 RMK AO2 SLP278 T10671161
KTEB 060230Z 0603/0624 33008KT P6SM OVC100 
     FM060600 35010KT P6SM SCT050 
     FM061100 35006KT P6SM FEW050 
     FM062000 VRB03KT P6SM FEW050
       
KEWR 060351Z 33012G21KT 10SM SCT120 OVC140 M06/M14 A3036 RMK AO2 SLP281 PRESENT WX DRSN T10611139
KEWR 060230Z 0603/0706 32012G18KT P6SM BKN070 
     FM060600 35012KT P6SM SCT050 
     FM061100 35008KT P6SM FEW050 
     FM062000 VRB05KT P6SM FEW050
       
KHPN 060256Z 32010KT 10SM FEW120 M07/M15 A3029 RMK AO2 SLP270 60000 T10671150 53029
KHPN 060230Z 0603/0624 33008KT P6SM OVC100 
     FM060600 35012KT P6SM SCT050 
     FM061000 35006KT P6SM FEW050 
     FM062000 VRB03KT P6SM FEW050 AMD NOT SKED
       
KABE 060351Z 34009KT 10SM CLR M09/M17 A3041 RMK AO2 SLP303 T10891167
KABE 052336Z 0600/0624 31010KT P6SM VCSH SCT050 OVC100 
     FM060300 32009KT P6SM SKC 
     FM061500 34005KT P6SM SKC 
     FM062100 24005KT P6SM SCT200
       
KAVP 060254Z AUTO 34010KT 10SM CLR M11/M18 A3036 RMK AO2 SLP295 T11061178 53029
KAVP 052320Z 0600/0624 34009KT P6SM OVC110 
     FM060200 34008KT P6SM SCT030 OVC070 
     FM060500 33004KT P6SM FEW025 
     FM061800 VRB03KT P6SM OVC250
       
KSWF 060345Z 33012KT 10SM SCT100 M07/M16 A3035
KSWF 060230Z 0603/0706 33012G20KT P6SM OVC100 
     FM060600 35008KT P6SM SCT050 
     FM061000 VRB03KT P6SM SKC 
     FM062000 VRB03KT P6SM SCT050 AMD NOT SKED
       
KMSV 060335Z AUTO 32009G16KT 10SM BKN030 M13/M18 A3031 RMK AO1
KPOU 060253Z AUTO 32009KT 10SM CLR M07/M16 A3035 RMK AO2 SLP277 T10671161 53033
KPOU 052321Z 0600/0624 36006KT P6SM OVC120 
     FM060400 36004KT P6SM BKN200 
     FM060800 VRB02KT P6SM SKC 
     FM061500 32005KT P6SM SKC 
     FM062100 VRB03KT P6SM SCT250